sensor_id;sensor_type;location;lat;lon;timestamp;P1;durP1;ratioP1;P2;durP2;ratioP2
16502;SDS011;53067;48.114;11.694;2022-08-01T00:02:06;2.52;;;2.33;;
16502;SDS011;53067;48.114;11.694;2022-08-01T00:04:34;2.40;;;2.27;;
16502;SDS011;53067;48.114;11.694;2022-08-01T00:07:01;2.67;;;2.47;;
16502;SDS011;53067;48.114;11.694;2022-08-01T00:09:29;2.10;;;2.00;;
16502;SDS011;53067;48.114;11.694;2022-08-01T00:11:57;2.98;;;2.70;;
16502;SDS011;53067;48.114;11.694;2022-08-01T00:14:24;3.22;;;2.40;;
16502;SDS011;53067;48.114;11.694;2022-08-01T00:16:52;3.45;;;2.45;;
16502;SDS011;53067;48.114;11.694;2022-08-01T00:19:19;2.50;;;2.40;;
16502;SDS011;53067;48.114;11.694;2022-08-01T00:21:47;2.50;;;2.25;;
16502;SDS011;53067;48.114;11.694;2022-08-01T00:24:14;2.35;;;2.25;;
16502;SDS011;53067;48.114;11.694;2022-08-01T00:26:42;2.65;;;2.45;;
16502;SDS011;53067;48.114;11.694;2022-08-01T00:29:09;2.55;;;2.45;;
16502;SDS011;53067;48.114;11.694;2022-08-01T00:31:37;2.92;;;2.45;;
16502;SDS011;53067;48.114;11.694;2022-08-01T00:34:04;2.58;;;2.47;;
16502;SDS011;53067;48.114;11.694;2022-08-01T00:36:32;2.58;;;2.37;;
16502;SDS011;53067;48.114;11.694;2022-08-01T00:38:59;2.50;;;2.40;;
16502;SDS011;53067;48.114;11.694;2022-08-01T00:41:27;2.60;;;2.40;;
16502;SDS011;53067;48.114;11.694;2022-08-01T00:43:55;2.77;;;2.62;;
16502;SDS011;53067;48.114;11.694;2022-08-01T00:46:22;2.60;;;2.40;;
16502;SDS011;53067;48.114;11.694;2022-08-01T00:48:50;2.77;;;2.55;;
16502;SDS011;53067;48.114;11.694;2022-08-01T00:51:17;2.65;;;2.55;;
16502;SDS011;53067;48.114;11.694;2022-08-01T00:53:45;2.35;;;2.20;;
16502;SDS011;53067;48.114;11.694;2022-08-01T00:56:13;2.70;;;2.40;;
16502;SDS011;53067;48.114;11.694;2022-08-01T00:58:40;3.80;;;2.20;;
16502;SDS011;53067;48.114;11.694;2022-08-01T01:01:09;3.22;;;2.60;;
16502;SDS011;53067;48.114;11.694;2022-08-01T01:03:37;2.50;;;2.30;;
16502;SDS011;53067;48.114;11.694;2022-08-01T01:06:11;2.92;;;2.72;;
16502;SDS011;53067;48.114;11.694;2022-08-01T01:08:52;2.72;;;2.60;;
16502;SDS011;53067;48.114;11.694;2022-08-01T01:11:27;2.58;;;2.40;;
16502;SDS011;53067;48.114;11.694;2022-08-01T01:14:08;2.80;;;2.67;;
16502;SDS011;53067;48.114;11.694;2022-08-01T01:16:29;2.80;;;2.60;;
16502;SDS011;53067;48.114;11.694;2022-08-01T01:19:00;3.12;;;2.47;;
16502;SDS011;53067;48.114;11.694;2022-08-01T01:24:13;2.90;;;2.70;;
16502;SDS011;53067;48.114;11.694;2022-08-01T01:29:50;2.92;;;2.72;;
16502;SDS011;53067;48.114;11.694;2022-08-01T01:32:25;2.90;;;2.70;;
16502;SDS011;53067;48.114;11.694;2022-08-01T01:34:58;2.60;;;2.50;;
16502;SDS011;53067;48.114;11.694;2022-08-01T01:37:27;2.77;;;2.62;;
16502;SDS011;53067;48.114;11.694;2022-08-01T01:39:56;2.87;;;2.60;;
16502;SDS011;53067;48.114;11.694;2022-08-01T01:42:24;3.47;;;2.33;;
16502;SDS011;53067;48.114;11.694;2022-08-01T01:44:53;2.58;;;2.47;;
16502;SDS011;53067;48.114;11.694;2022-08-01T01:47:22;2.70;;;2.60;;
16502;SDS011;53067;48.114;11.694;2022-08-01T01:49:51;2.67;;;2.58;;
16502;SDS011;53067;48.114;11.694;2022-08-01T01:52:22;2.45;;;2.35;;
16502;SDS011;53067;48.114;11.694;2022-08-01T01:54:51;2.98;;;2.65;;
16502;SDS011;53067;48.114;11.694;2022-08-01T01:57:20;2.80;;;2.60;;
16502;SDS011;53067;48.114;11.694;2022-08-01T01:59:48;2.37;;;2.27;;
16502;SDS011;53067;48.114;11.694;2022-08-01T02:02:17;3.27;;;2.77;;
16502;SDS011;53067;48.114;11.694;2022-08-01T02:04:47;2.55;;;2.35;;
16502;SDS011;53067;48.114;11.694;2022-08-01T02:07:21;2.30;;;2.20;;
16502;SDS011;53067;48.114;11.694;2022-08-01T02:09:46;2.40;;;2.30;;
16502;SDS011;53067;48.114;11.694;2022-08-01T02:12:15;2.95;;;2.75;;
16502;SDS011;53067;48.114;11.694;2022-08-01T02:14:45;2.30;;;2.20;;
16502;SDS011;53067;48.114;11.694;2022-08-01T02:17:15;2.47;;;2.27;;
16502;SDS011;53067;48.114;11.694;2022-08-01T02:19:45;2.50;;;2.30;;
16502;SDS011;53067;48.114;11.694;2022-08-01T02:24:50;2.30;;;2.20;;
16502;SDS011;53067;48.114;11.694;2022-08-01T02:27:43;2.50;;;2.30;;
16502;SDS011;53067;48.114;11.694;2022-08-01T02:30:10;2.50;;;2.30;;
16502;SDS011;53067;48.114;11.694;2022-08-01T02:32:44;2.62;;;2.45;;
16502;SDS011;53067;48.114;11.694;2022-08-01T02:35:21;2.55;;;2.33;;
16502;SDS011;53067;48.114;11.694;2022-08-01T02:37:53;2.40;;;2.30;;
16502;SDS011;53067;48.114;11.694;2022-08-01T02:40:23;3.70;;;2.65;;
16502;SDS011;53067;48.114;11.694;2022-08-01T02:42:53;2.80;;;2.60;;
16502;SDS011;53067;48.114;11.694;2022-08-01T02:45:24;2.40;;;2.30;;
16502;SDS011;53067;48.114;11.694;2022-08-01T02:47:57;2.58;;;2.37;;
16502;SDS011;53067;48.114;11.694;2022-08-01T02:50:26;2.92;;;2.40;;
16502;SDS011;53067;48.114;11.694;2022-08-01T02:52:56;2.50;;;2.30;;
16502;SDS011;53067;48.114;11.694;2022-08-01T02:55:25;2.30;;;2.20;;
16502;SDS011;53067;48.114;11.694;2022-08-01T02:57:54;2.70;;;2.50;;
16502;SDS011;53067;48.114;11.694;2022-08-01T03:00:23;2.45;;;2.25;;
16502;SDS011;53067;48.114;11.694;2022-08-01T03:02:52;2.72;;;2.52;;
16502;SDS011;53067;48.114;11.694;2022-08-01T03:05:22;2.83;;;2.62;;
16502;SDS011;53067;48.114;11.694;2022-08-01T03:07:52;2.42;;;2.33;;
16502;SDS011;53067;48.114;11.694;2022-08-01T03:10:21;2.58;;;2.47;;
16502;SDS011;53067;48.114;11.694;2022-08-01T03:12:50;2.33;;;2.22;;
16502;SDS011;53067;48.114;11.694;2022-08-01T03:15:18;3.08;;;2.58;;
16502;SDS011;53067;48.114;11.694;2022-08-01T03:17:48;2.30;;;2.20;;
16502;SDS011;53067;48.114;11.694;2022-08-01T03:20:18;2.72;;;2.60;;
16502;SDS011;53067;48.114;11.694;2022-08-01T03:22:49;2.40;;;2.30;;
16502;SDS011;53067;48.114;11.694;2022-08-01T03:25:18;2.70;;;2.50;;
16502;SDS011;53067;48.114;11.694;2022-08-01T03:27:48;3.35;;;2.47;;
16502;SDS011;53067;48.114;11.694;2022-08-01T03:30:18;3.17;;;2.87;;
16502;SDS011;53067;48.114;11.694;2022-08-01T03:32:46;2.60;;;2.50;;
16502;SDS011;53067;48.114;11.694;2022-08-01T03:35:14;2.60;;;2.37;;
16502;SDS011;53067;48.114;11.694;2022-08-01T03:37:44;3.45;;;2.58;;
16502;SDS011;53067;48.114;11.694;2022-08-01T03:40:17;3.75;;;2.70;;
16502;SDS011;53067;48.114;11.694;2022-08-01T03:42:45;2.70;;;2.50;;
16502;SDS011;53067;48.114;11.694;2022-08-01T03:45:22;2.77;;;2.65;;
16502;SDS011;53067;48.114;11.694;2022-08-01T03:48:00;2.20;;;2.08;;
16502;SDS011;53067;48.114;11.694;2022-08-01T03:50:30;2.47;;;2.27;;
16502;SDS011;53067;48.114;11.694;2022-08-01T03:53:00;3.10;;;2.83;;
16502;SDS011;53067;48.114;11.694;2022-08-01T03:55:29;2.45;;;2.35;;
16502;SDS011;53067;48.114;11.694;2022-08-01T03:57:58;2.83;;;2.62;;
16502;SDS011;53067;48.114;11.694;2022-08-01T04:00:27;2.87;;;2.67;;
16502;SDS011;53067;48.114;11.694;2022-08-01T04:02:55;2.35;;;2.20;;
16502;SDS011;53067;48.114;11.694;2022-08-01T04:05:23;2.67;;;2.45;;
16502;SDS011;53067;48.114;11.694;2022-08-01T04:07:51;2.40;;;2.30;;
16502;SDS011;53067;48.114;11.694;2022-08-01T04:10:20;4.65;;;2.40;;
16502;SDS011;53067;48.114;11.694;2022-08-01T04:12:49;2.87;;;2.42;;
16502;SDS011;53067;48.114;11.694;2022-08-01T04:15:16;2.80;;;2.60;;
16502;SDS011;53067;48.114;11.694;2022-08-01T04:17:45;2.60;;;2.50;;
16502;SDS011;53067;48.114;11.694;2022-08-01T04:20:13;2.52;;;2.40;;
16502;SDS011;53067;48.114;11.694;2022-08-01T04:22:41;2.60;;;2.40;;
16502;SDS011;53067;48.114;11.694;2022-08-01T04:25:11;2.80;;;2.60;;
16502;SDS011;53067;48.114;11.694;2022-08-01T04:27:40;2.55;;;2.15;;
16502;SDS011;53067;48.114;11.694;2022-08-01T04:30:11;2.33;;;2.22;;
16502;SDS011;53067;48.114;11.694;2022-08-01T04:32:40;2.40;;;2.30;;
16502;SDS011;53067;48.114;11.694;2022-08-01T04:35:28;2.83;;;2.60;;
16502;SDS011;53067;48.114;11.694;2022-08-01T04:38:25;2.42;;;2.33;;
16502;SDS011;53067;48.114;11.694;2022-08-01T04:40:53;2.67;;;2.47;;
16502;SDS011;53067;48.114;11.694;2022-08-01T04:43:47;2.55;;;2.35;;
16502;SDS011;53067;48.114;11.694;2022-08-01T04:46:17;4.47;;;2.60;;
16502;SDS011;53067;48.114;11.694;2022-08-01T04:48:45;2.75;;;2.55;;
16502;SDS011;53067;48.114;11.694;2022-08-01T04:51:14;2.70;;;2.50;;
16502;SDS011;53067;48.114;11.694;2022-08-01T04:53:44;2.80;;;2.60;;
16502;SDS011;53067;48.114;11.694;2022-08-01T04:56:17;2.65;;;2.42;;
16502;SDS011;53067;48.114;11.694;2022-08-01T04:58:46;2.20;;;2.10;;
16502;SDS011;53067;48.114;11.694;2022-08-01T05:01:14;2.40;;;2.30;;
16502;SDS011;53067;48.114;11.694;2022-08-01T05:03:41;2.70;;;2.50;;
16502;SDS011;53067;48.114;11.694;2022-08-01T05:06:09;2.60;;;2.50;;
16502;SDS011;53067;48.114;11.694;2022-08-01T05:08:37;2.50;;;2.30;;
16502;SDS011;53067;48.114;11.694;2022-08-01T05:11:05;2.85;;;2.65;;
16502;SDS011;53067;48.114;11.694;2022-08-01T05:13:32;2.37;;;2.27;;
16502;SDS011;53067;48.114;11.694;2022-08-01T05:16:00;3.02;;;2.72;;
16502;SDS011;53067;48.114;11.694;2022-08-01T05:18:29;2.55;;;2.42;;
16502;SDS011;53067;48.114;11.694;2022-08-01T05:20:56;2.90;;;2.70;;
16502;SDS011;53067;48.114;11.694;2022-08-01T05:23:24;2.60;;;2.40;;
16502;SDS011;53067;48.114;11.694;2022-08-01T05:25:51;2.58;;;2.45;;
16502;SDS011;53067;48.114;11.694;2022-08-01T05:28:19;2.45;;;2.25;;
16502;SDS011;53067;48.114;11.694;2022-08-01T05:30:46;2.45;;;2.30;;
16502;SDS011;53067;48.114;11.694;2022-08-01T05:33:14;2.52;;;2.33;;
16502;SDS011;53067;48.114;11.694;2022-08-01T05:35:41;2.87;;;2.67;;
16502;SDS011;53067;48.114;11.694;2022-08-01T05:38:09;2.00;;;1.90;;
16502;SDS011;53067;48.114;11.694;2022-08-01T05:40:36;2.70;;;2.50;;
16502;SDS011;53067;48.114;11.694;2022-08-01T05:43:04;2.80;;;2.60;;
16502;SDS011;53067;48.114;11.694;2022-08-01T05:45:31;2.75;;;2.45;;
16502;SDS011;53067;48.114;11.694;2022-08-01T05:47:59;2.80;;;2.40;;
16502;SDS011;53067;48.114;11.694;2022-08-01T05:50:27;3.05;;;2.50;;
16502;SDS011;53067;48.114;11.694;2022-08-01T05:52:54;3.27;;;2.50;;
16502;SDS011;53067;48.114;11.694;2022-08-01T05:55:22;2.55;;;2.37;;
16502;SDS011;53067;48.114;11.694;2022-08-01T05:57:49;2.75;;;2.35;;
16502;SDS011;53067;48.114;11.694;2022-08-01T06:00:17;2.62;;;2.40;;
16502;SDS011;53067;48.114;11.694;2022-08-01T06:02:44;2.83;;;2.60;;
16502;SDS011;53067;48.114;11.694;2022-08-01T06:05:12;2.40;;;2.30;;
16502;SDS011;53067;48.114;11.694;2022-08-01T06:07:39;2.70;;;2.50;;
16502;SDS011;53067;48.114;11.694;2022-08-01T06:10:08;3.15;;;2.80;;
16502;SDS011;53067;48.114;11.694;2022-08-01T06:12:36;2.50;;;2.40;;
16502;SDS011;53067;48.114;11.694;2022-08-01T06:15:06;3.67;;;2.72;;
16502;SDS011;53067;48.114;11.694;2022-08-01T06:17:34;2.90;;;2.62;;
16502;SDS011;53067;48.114;11.694;2022-08-01T06:20:02;3.00;;;2.80;;
16502;SDS011;53067;48.114;11.694;2022-08-01T06:22:32;2.83;;;2.60;;
16502;SDS011;53067;48.114;11.694;2022-08-01T06:25:00;2.65;;;2.52;;
16502;SDS011;53067;48.114;11.694;2022-08-01T06:27:27;2.52;;;2.42;;
16502;SDS011;53067;48.114;11.694;2022-08-01T06:29:55;2.58;;;2.37;;
16502;SDS011;53067;48.114;11.694;2022-08-01T06:32:23;2.50;;;2.30;;
16502;SDS011;53067;48.114;11.694;2022-08-01T06:34:52;2.75;;;2.65;;
16502;SDS011;53067;48.114;11.694;2022-08-01T06:37:20;2.87;;;2.58;;
16502;SDS011;53067;48.114;11.694;2022-08-01T06:39:48;3.05;;;2.70;;
16502;SDS011;53067;48.114;11.694;2022-08-01T06:42:15;3.40;;;3.10;;
16502;SDS011;53067;48.114;11.694;2022-08-01T06:44:43;2.80;;;2.70;;
16502;SDS011;53067;48.114;11.694;2022-08-01T06:47:11;2.85;;;2.65;;
16502;SDS011;53067;48.114;11.694;2022-08-01T06:49:38;3.58;;;2.67;;
16502;SDS011;53067;48.114;11.694;2022-08-01T06:52:06;2.98;;;2.77;;
16502;SDS011;53067;48.114;11.694;2022-08-01T06:54:33;2.60;;;2.37;;
16502;SDS011;53067;48.114;11.694;2022-08-01T06:57:04;3.02;;;2.83;;
16502;SDS011;53067;48.114;11.694;2022-08-01T06:59:33;4.30;;;2.70;;
16502;SDS011;53067;48.114;11.694;2022-08-01T07:02:00;2.60;;;2.40;;
16502;SDS011;53067;48.114;11.694;2022-08-01T07:04:28;2.72;;;2.52;;
16502;SDS011;53067;48.114;11.694;2022-08-01T07:06:56;3.83;;;2.95;;
16502;SDS011;53067;48.114;11.694;2022-08-01T07:09:24;3.95;;;2.70;;
16502;SDS011;53067;48.114;11.694;2022-08-01T07:11:52;2.90;;;2.70;;
16502;SDS011;53067;48.114;11.694;2022-08-01T07:14:24;3.22;;;3.02;;
16502;SDS011;53067;48.114;11.694;2022-08-01T07:16:52;3.20;;;2.95;;
16502;SDS011;53067;48.114;11.694;2022-08-01T07:19:19;2.60;;;2.40;;
16502;SDS011;53067;48.114;11.694;2022-08-01T07:21:47;3.35;;;2.67;;
16502;SDS011;53067;48.114;11.694;2022-08-01T07:24:16;4.00;;;2.80;;
16502;SDS011;53067;48.114;11.694;2022-08-01T07:29:30;3.10;;;2.80;;
16502;SDS011;53067;48.114;11.694;2022-08-01T07:31:58;3.20;;;2.90;;
16502;SDS011;53067;48.114;11.694;2022-08-01T07:34:27;2.87;;;2.67;;
16502;SDS011;53067;48.114;11.694;2022-08-01T07:36:55;3.00;;;2.80;;
16502;SDS011;53067;48.114;11.694;2022-08-01T07:39:22;3.00;;;2.80;;
16502;SDS011;53067;48.114;11.694;2022-08-01T07:41:50;3.05;;;2.85;;
16502;SDS011;53067;48.114;11.694;2022-08-01T07:44:17;3.08;;;2.80;;
16502;SDS011;53067;48.114;11.694;2022-08-01T07:46:45;3.08;;;2.77;;
16502;SDS011;53067;48.114;11.694;2022-08-01T07:49:14;3.42;;;3.22;;
16502;SDS011;53067;48.114;11.694;2022-08-01T07:51:41;3.87;;;2.72;;
16502;SDS011;53067;48.114;11.694;2022-08-01T07:54:09;2.90;;;2.75;;
16502;SDS011;53067;48.114;11.694;2022-08-01T07:56:36;4.50;;;3.27;;
16502;SDS011;53067;48.114;11.694;2022-08-01T07:59:04;3.52;;;3.22;;
16502;SDS011;53067;48.114;11.694;2022-08-01T08:01:31;3.00;;;2.80;;
16502;SDS011;53067;48.114;11.694;2022-08-01T08:03:59;3.08;;;2.70;;
16502;SDS011;53067;48.114;11.694;2022-08-01T08:06:26;2.98;;;2.77;;
16502;SDS011;53067;48.114;11.694;2022-08-01T08:08:54;3.25;;;2.85;;
16502;SDS011;53067;48.114;11.694;2022-08-01T08:11:22;3.30;;;3.00;;
16502;SDS011;53067;48.114;11.694;2022-08-01T08:13:49;3.12;;;2.92;;
16502;SDS011;53067;48.114;11.694;2022-08-01T08:16:17;3.35;;;3.15;;
16502;SDS011;53067;48.114;11.694;2022-08-01T08:18:46;3.00;;;2.80;;
16502;SDS011;53067;48.114;11.694;2022-08-01T08:21:14;3.60;;;3.30;;
16502;SDS011;53067;48.114;11.694;2022-08-01T08:23:41;3.37;;;3.17;;
16502;SDS011;53067;48.114;11.694;2022-08-01T08:26:27;4.03;;;3.02;;
16502;SDS011;53067;48.114;11.694;2022-08-01T08:28:54;2.92;;;2.72;;
16502;SDS011;53067;48.114;11.694;2022-08-01T08:31:22;3.58;;;3.20;;
16502;SDS011;53067;48.114;11.694;2022-08-01T08:33:49;3.47;;;3.17;;
16502;SDS011;53067;48.114;11.694;2022-08-01T08:36:17;3.40;;;3.10;;
16502;SDS011;53067;48.114;11.694;2022-08-01T08:38:44;3.00;;;2.80;;
16502;SDS011;53067;48.114;11.694;2022-08-01T08:41:12;3.27;;;2.98;;
16502;SDS011;53067;48.114;11.694;2022-08-01T08:43:40;3.12;;;2.80;;
16502;SDS011;53067;48.114;11.694;2022-08-01T08:46:08;3.05;;;2.80;;
16502;SDS011;53067;48.114;11.694;2022-08-01T08:48:39;4.65;;;2.80;;
16502;SDS011;53067;48.114;11.694;2022-08-01T08:51:26;3.00;;;2.80;;
16502;SDS011;53067;48.114;11.694;2022-08-01T08:53:56;3.05;;;2.85;;
16502;SDS011;53067;48.114;11.694;2022-08-01T08:56:24;3.33;;;3.08;;
16502;SDS011;53067;48.114;11.694;2022-08-01T08:58:56;2.98;;;2.77;;
16502;SDS011;53067;48.114;11.694;2022-08-01T09:01:24;2.90;;;2.60;;
16502;SDS011;53067;48.114;11.694;2022-08-01T09:03:51;3.15;;;2.50;;
16502;SDS011;53067;48.114;11.694;2022-08-01T09:06:20;2.70;;;2.50;;
16502;SDS011;53067;48.114;11.694;2022-08-01T09:08:48;2.90;;;2.70;;
16502;SDS011;53067;48.114;11.694;2022-08-01T09:11:15;3.33;;;2.62;;
16502;SDS011;53067;48.114;11.694;2022-08-01T09:14:00;2.87;;;2.70;;
16502;SDS011;53067;48.114;11.694;2022-08-01T09:16:15;3.00;;;2.80;;
16502;SDS011;53067;48.114;11.694;2022-08-01T09:18:46;2.90;;;2.70;;
16502;SDS011;53067;48.114;11.694;2022-08-01T09:21:15;3.20;;;2.90;;
16502;SDS011;53067;48.114;11.694;2022-08-01T09:23:45;4.08;;;3.00;;
16502;SDS011;53067;48.114;11.694;2022-08-01T09:26:15;3.20;;;3.00;;
16502;SDS011;53067;48.114;11.694;2022-08-01T09:28:45;2.60;;;2.50;;
16502;SDS011;53067;48.114;11.694;2022-08-01T09:31:14;2.50;;;2.30;;
16502;SDS011;53067;48.114;11.694;2022-08-01T09:34:01;2.62;;;2.42;;
16502;SDS011;53067;48.114;11.694;2022-08-01T09:36:23;2.87;;;2.50;;
16502;SDS011;53067;48.114;11.694;2022-08-01T09:38:53;2.27;;;2.17;;
16502;SDS011;53067;48.114;11.694;2022-08-01T09:41:30;2.33;;;2.12;;
16502;SDS011;53067;48.114;11.694;2022-08-01T09:43:58;2.33;;;2.12;;
16502;SDS011;53067;48.114;11.694;2022-08-01T09:46:26;2.90;;;2.58;;
16502;SDS011;53067;48.114;11.694;2022-08-01T09:48:59;2.45;;;2.30;;
16502;SDS011;53067;48.114;11.694;2022-08-01T09:51:28;2.50;;;1.90;;
16502;SDS011;53067;48.114;11.694;2022-08-01T09:53:57;2.45;;;2.25;;
16502;SDS011;53067;48.114;11.694;2022-08-01T09:56:25;2.60;;;2.40;;
16502;SDS011;53067;48.114;11.694;2022-08-01T09:58:56;2.30;;;2.12;;
16502;SDS011;53067;48.114;11.694;2022-08-01T10:01:42;2.12;;;2.00;;
16502;SDS011;53067;48.114;11.694;2022-08-01T10:04:15;3.58;;;2.60;;
16502;SDS011;53067;48.114;11.694;2022-08-01T10:06:48;2.30;;;2.10;;
16502;SDS011;53067;48.114;11.694;2022-08-01T10:09:28;2.47;;;1.90;;
16502;SDS011;53067;48.114;11.694;2022-08-01T10:11:56;2.10;;;2.00;;
16502;SDS011;53067;48.114;11.694;2022-08-01T10:14:26;2.72;;;2.10;;
16502;SDS011;53067;48.114;11.694;2022-08-01T10:16:56;3.08;;;2.12;;
16502;SDS011;53067;48.114;11.694;2022-08-01T10:19:26;2.08;;;1.98;;
16502;SDS011;53067;48.114;11.694;2022-08-01T10:21:56;1.90;;;1.80;;
16502;SDS011;53067;48.114;11.694;2022-08-01T10:24:25;1.75;;;1.60;;
16502;SDS011;53067;48.114;11.694;2022-08-01T10:26:57;3.35;;;2.40;;
16502;SDS011;53067;48.114;11.694;2022-08-01T10:29:27;2.70;;;2.50;;
16502;SDS011;53067;48.114;11.694;2022-08-01T10:31:58;2.40;;;2.20;;
16502;SDS011;53067;48.114;11.694;2022-08-01T10:34:26;2.40;;;2.20;;
16502;SDS011;53067;48.114;11.694;2022-08-01T10:36:56;1.92;;;1.82;;
16502;SDS011;53067;48.114;11.694;2022-08-01T10:39:24;2.02;;;1.92;;
16502;SDS011;53067;48.114;11.694;2022-08-01T10:41:55;1.82;;;1.72;;
16502;SDS011;53067;48.114;11.694;2022-08-01T10:44:26;2.55;;;1.80;;
16502;SDS011;53067;48.114;11.694;2022-08-01T10:47:01;2.00;;;1.90;;
16502;SDS011;53067;48.114;11.694;2022-08-01T10:49:34;2.62;;;2.20;;
16502;SDS011;53067;48.114;11.694;2022-08-01T10:52:03;2.00;;;1.90;;
16502;SDS011;53067;48.114;11.694;2022-08-01T10:54:37;2.05;;;1.90;;
16502;SDS011;53067;48.114;11.694;2022-08-01T10:57:06;1.92;;;1.82;;
16502;SDS011;53067;48.114;11.694;2022-08-01T10:59:34;1.95;;;1.85;;
16502;SDS011;53067;48.114;11.694;2022-08-01T11:02:04;1.80;;;1.70;;
16502;SDS011;53067;48.114;11.694;2022-08-01T11:04:48;2.00;;;1.90;;
16502;SDS011;53067;48.114;11.694;2022-08-01T11:10:21;1.80;;;1.70;;
16502;SDS011;53067;48.114;11.694;2022-08-01T11:12:44;1.90;;;1.80;;
16502;SDS011;53067;48.114;11.694;2022-08-01T11:17:45;1.57;;;1.50;;
16502;SDS011;53067;48.114;11.694;2022-08-01T11:20:18;2.85;;;2.00;;
16502;SDS011;53067;48.114;11.694;2022-08-01T11:30:46;1.90;;;1.80;;
16502;SDS011;53067;48.114;11.694;2022-08-01T11:41:26;1.92;;;1.77;;
16502;SDS011;53067;48.114;11.694;2022-08-01T11:43:59;1.70;;;1.60;;
16502;SDS011;53067;48.114;11.694;2022-08-01T11:54:36;2.00;;;1.80;;
16502;SDS011;53067;48.114;11.694;2022-08-01T11:57:05;1.65;;;1.52;;
16502;SDS011;53067;48.114;11.694;2022-08-01T11:59:44;2.50;;;1.70;;
16502;SDS011;53067;48.114;11.694;2022-08-01T12:02:18;2.05;;;1.70;;
16502;SDS011;53067;48.114;11.694;2022-08-01T12:07:24;1.82;;;1.72;;
16502;SDS011;53067;48.114;11.694;2022-08-01T12:09:57;1.98;;;1.77;;
16502;SDS011;53067;48.114;11.694;2022-08-01T12:12:28;1.65;;;1.50;;
16502;SDS011;53067;48.114;11.694;2022-08-01T12:14:57;1.70;;;1.60;;
16502;SDS011;53067;48.114;11.694;2022-08-01T12:17:30;1.72;;;1.62;;
16502;SDS011;53067;48.114;11.694;2022-08-01T12:20:21;1.45;;;1.40;;
16502;SDS011;53067;48.114;11.694;2022-08-01T12:22:54;1.40;;;1.40;;
16502;SDS011;53067;48.114;11.694;2022-08-01T12:25:23;1.70;;;1.60;;
16502;SDS011;53067;48.114;11.694;2022-08-01T12:27:50;2.10;;;1.60;;
16502;SDS011;53067;48.114;11.694;2022-08-01T12:30:19;1.37;;;1.37;;
16502;SDS011;53067;48.114;11.694;2022-08-01T12:32:51;1.87;;;1.77;;
16502;SDS011;53067;48.114;11.694;2022-08-01T12:35:20;2.15;;;1.62;;
16502;SDS011;53067;48.114;11.694;2022-08-01T12:37:50;1.30;;;1.20;;
16502;SDS011;53067;48.114;11.694;2022-08-01T12:40:20;2.25;;;1.65;;
16502;SDS011;53067;48.114;11.694;2022-08-01T12:42:55;1.50;;;1.40;;
16502;SDS011;53067;48.114;11.694;2022-08-01T12:45:31;1.57;;;1.47;;
16502;SDS011;53067;48.114;11.694;2022-08-01T12:47:54;1.62;;;1.52;;
16502;SDS011;53067;48.114;11.694;2022-08-01T12:50:24;2.22;;;1.60;;
16502;SDS011;53067;48.114;11.694;2022-08-01T12:52:55;2.55;;;1.60;;
16502;SDS011;53067;48.114;11.694;2022-08-01T12:55:28;1.75;;;1.50;;
16502;SDS011;53067;48.114;11.694;2022-08-01T12:58:08;1.10;;;1.10;;
16502;SDS011;53067;48.114;11.694;2022-08-01T13:00:34;1.60;;;1.50;;
16502;SDS011;53067;48.114;11.694;2022-08-01T13:03:10;2.15;;;1.50;;
16502;SDS011;53067;48.114;11.694;2022-08-01T13:08:16;2.52;;;1.50;;
16502;SDS011;53067;48.114;11.694;2022-08-01T13:10:46;1.20;;;1.20;;
16502;SDS011;53067;48.114;11.694;2022-08-01T13:13:14;1.37;;;1.30;;
16502;SDS011;53067;48.114;11.694;2022-08-01T13:15:45;1.50;;;1.40;;
16502;SDS011;53067;48.114;11.694;2022-08-01T13:18:27;1.42;;;1.32;;
16502;SDS011;53067;48.114;11.694;2022-08-01T13:21:11;1.47;;;1.37;;
16502;SDS011;53067;48.114;11.694;2022-08-01T13:26:58;1.50;;;1.40;;
16502;SDS011;53067;48.114;11.694;2022-08-01T13:29:30;2.15;;;1.45;;
16502;SDS011;53067;48.114;11.694;2022-08-01T13:32:00;1.45;;;1.35;;
16502;SDS011;53067;48.114;11.694;2022-08-01T13:34:41;1.45;;;1.32;;
16502;SDS011;53067;48.114;11.694;2022-08-01T13:37:09;1.20;;;1.20;;
16502;SDS011;53067;48.114;11.694;2022-08-01T13:39:36;1.65;;;1.50;;
16502;SDS011;53067;48.114;11.694;2022-08-01T13:42:08;1.37;;;1.30;;
16502;SDS011;53067;48.114;11.694;2022-08-01T13:44:40;1.50;;;1.40;;
16502;SDS011;53067;48.114;11.694;2022-08-01T13:47:10;1.55;;;1.45;;
16502;SDS011;53067;48.114;11.694;2022-08-01T13:49:38;1.50;;;1.40;;
16502;SDS011;53067;48.114;11.694;2022-08-01T13:52:05;1.40;;;1.10;;
16502;SDS011;53067;48.114;11.694;2022-08-01T13:54:33;0.95;;;0.88;;
16502;SDS011;53067;48.114;11.694;2022-08-01T13:57:01;1.80;;;1.30;;
16502;SDS011;53067;48.114;11.694;2022-08-01T13:59:30;1.40;;;1.30;;
16502;SDS011;53067;48.114;11.694;2022-08-01T14:01:57;1.22;;;1.20;;
16502;SDS011;53067;48.114;11.694;2022-08-01T14:04:25;1.50;;;1.10;;
16502;SDS011;53067;48.114;11.694;2022-08-01T14:06:52;1.22;;;1.22;;
16502;SDS011;53067;48.114;11.694;2022-08-01T14:09:20;4.12;;;1.50;;
16502;SDS011;53067;48.114;11.694;2022-08-01T14:11:48;1.90;;;1.20;;
16502;SDS011;53067;48.114;11.694;2022-08-01T14:14:16;1.70;;;1.15;;
16502;SDS011;53067;48.114;11.694;2022-08-01T14:16:44;1.67;;;1.10;;
16502;SDS011;53067;48.114;11.694;2022-08-01T14:19:12;1.30;;;1.12;;
16502;SDS011;53067;48.114;11.694;2022-08-01T14:21:41;0.78;;;0.78;;
16502;SDS011;53067;48.114;11.694;2022-08-01T14:24:08;1.10;;;1.00;;
16502;SDS011;53067;48.114;11.694;2022-08-01T14:26:36;2.40;;;1.00;;
16502;SDS011;53067;48.114;11.694;2022-08-01T14:29:03;1.20;;;1.20;;
16502;SDS011;53067;48.114;11.694;2022-08-01T14:31:31;1.00;;;1.00;;
16502;SDS011;53067;48.114;11.694;2022-08-01T14:33:58;1.40;;;1.17;;
16502;SDS011;53067;48.114;11.694;2022-08-01T14:36:26;1.30;;;1.30;;
16502;SDS011;53067;48.114;11.694;2022-08-01T14:38:54;1.60;;;1.50;;
16502;SDS011;53067;48.114;11.694;2022-08-01T14:41:21;2.27;;;1.55;;
16502;SDS011;53067;48.114;11.694;2022-08-01T14:43:49;1.65;;;1.55;;
16502;SDS011;53067;48.114;11.694;2022-08-01T14:46:16;1.60;;;1.50;;
16502;SDS011;53067;48.114;11.694;2022-08-01T14:48:44;1.27;;;1.27;;
16502;SDS011;53067;48.114;11.694;2022-08-01T14:51:11;1.40;;;1.40;;
16502;SDS011;53067;48.114;11.694;2022-08-01T14:53:39;1.80;;;1.70;;
16502;SDS011;53067;48.114;11.694;2022-08-01T14:56:07;3.62;;;1.77;;
16502;SDS011;53067;48.114;11.694;2022-08-01T14:58:35;2.35;;;1.40;;
16502;SDS011;53067;48.114;11.694;2022-08-01T15:01:03;2.30;;;1.57;;
16502;SDS011;53067;48.114;11.694;2022-08-01T15:03:31;2.20;;;1.50;;
16502;SDS011;53067;48.114;11.694;2022-08-01T15:05:58;2.27;;;1.60;;
16502;SDS011;53067;48.114;11.694;2022-08-01T15:08:26;1.67;;;1.57;;
16502;SDS011;53067;48.114;11.694;2022-08-01T15:10:55;3.50;;;1.55;;
16502;SDS011;53067;48.114;11.694;2022-08-01T15:13:23;1.52;;;1.42;;
16502;SDS011;53067;48.114;11.694;2022-08-01T15:15:50;1.77;;;1.60;;
16502;SDS011;53067;48.114;11.694;2022-08-01T15:18:18;1.75;;;1.65;;
16502;SDS011;53067;48.114;11.694;2022-08-01T15:20:45;1.72;;;1.62;;
16502;SDS011;53067;48.114;11.694;2022-08-01T15:23:13;2.05;;;1.75;;
16502;SDS011;53067;48.114;11.694;2022-08-01T15:25:40;3.17;;;1.85;;
16502;SDS011;53067;48.114;11.694;2022-08-01T15:28:11;2.25;;;1.72;;
16502;SDS011;53067;48.114;11.694;2022-08-01T15:30:39;1.77;;;1.67;;
16502;SDS011;53067;48.114;11.694;2022-08-01T15:33:07;1.80;;;1.50;;
16502;SDS011;53067;48.114;11.694;2022-08-01T15:35:35;3.80;;;1.75;;
16502;SDS011;53067;48.114;11.694;2022-08-01T15:38:03;3.50;;;1.50;;